Time;durP1;ratioP1;P1;durP2;ratioP2;P2;SDS_P1;SDS_P2;PMS_P1;PMS_P2;Temp;Humidity;BMP_temperature;BMP_pressure;BME280_temperature;BME280_humidity;BME280_pressure;Samples;Min_cycle;Max_cycle;Signal;HPM_P1;HPM_P2
2021/08/14 00:00:34;;;;;;;10.30;4.43;;;17.70;99.90;;;;;;5028442;28;20061;-40
2021/08/14 00:03:02;;;;;;;9.57;4.22;;;17.60;99.90;;;;;;5028178;28;20017;-36
2021/08/14 00:05:27;;;;;;;10.30;4.47;;;17.60;99.90;;;;;;5027854;28;20057;-42
2021/08/14 00:07:53;;;;;;;6.45;3.85;;;17.60;99.90;;;;;;5027527;28;20076;-40
2021/08/14 00:10:19;;;;;;;9.63;4.43;;;17.60;99.90;;;;;;5027763;28;20045;-37
2021/08/14 00:12:44;;;;;;;7.28;3.92;;;17.60;99.90;;;;;;5027629;28;20053;-38
2021/08/14 00:15:13;;;;;;;11.18;4.18;;;17.60;99.90;;;;;;5016972;28;20033;-39
2021/08/14 00:17:38;;;;;;;9.32;4.03;;;17.60;99.90;;;;;;5027409;28;20437;-38
2021/08/14 00:20:05;;;;;;;8.00;4.00;;;17.50;99.90;;;;;;5027471;28;20017;-38
2021/08/14 00:22:31;;;;;;;12.07;4.82;;;17.50;99.90;;;;;;5027786;28;20033;-40
2021/08/14 00:24:56;;;;;;;10.60;4.28;;;17.50;99.90;;;;;;5029805;28;20420;-41
2021/08/14 00:27:22;;;;;;;7.65;4.00;;;17.50;99.90;;;;;;5031643;28;20112;-38
2021/08/14 00:29:47;;;;;;;10.07;4.97;;;17.50;99.90;;;;;;5031586;28;20017;-36
2021/08/14 00:32:13;;;;;;;8.75;4.07;;;17.40;99.90;;;;;;5031644;28;20025;-41
2021/08/14 00:34:38;;;;;;;7.43;3.95;;;17.50;99.90;;;;;;5030996;28;20080;-42
2021/08/14 00:37:04;;;;;;;9.45;4.50;;;17.50;99.90;;;;;;5031387;28;20021;-39
2021/08/14 00:39:30;;;;;;;12.60;4.50;;;17.50;99.90;;;;;;5031138;28;20429;-39
2021/08/14 00:41:55;;;;;;;12.43;4.88;;;17.50;99.90;;;;;;5030809;28;20121;-38
2021/08/14 00:44:21;;;;;;;9.80;4.57;;;17.60;99.90;;;;;;5031544;28;20045;-37
2021/08/14 00:46:47;;;;;;;7.05;4.30;;;17.60;99.90;;;;;;5030310;28;20095;-40
2021/08/14 00:49:13;;;;;;;9.38;4.57;;;17.60;99.90;;;;;;5031008;28;20024;-39
2021/08/14 00:51:42;;;;;;;10.60;4.65;;;17.60;99.90;;;;;;5031294;28;20388;-36
2021/08/14 00:54:08;;;;;;;7.20;4.40;;;17.60;99.90;;;;;;5030799;28;20033;-39
2021/08/14 00:56:37;;;;;;;10.52;4.60;;;17.60;99.90;;;;;;5031300;28;20037;-39
2021/08/14 00:59:05;;;;;;;9.45;4.10;;;17.60;99.90;;;;;;5031037;28;20798;-42
2021/08/14 01:01:31;;;;;;;10.73;4.10;;;17.60;99.90;;;;;;5030125;28;20109;-41
2021/08/14 01:03:56;;;;;;;8.57;4.43;;;17.60;99.90;;;;;;5031039;28;20144;-39
2021/08/14 01:06:24;;;;;;;9.25;4.20;;;17.60;99.90;;;;;;5030157;28;20029;-37
2021/08/14 01:08:51;;;;;;;12.65;4.20;;;17.60;99.90;;;;;;5030925;28;20072;-38
2021/08/14 01:11:16;;;;;;;9.23;4.30;;;17.70;99.90;;;;;;5031280;28;20140;-36
2021/08/14 01:13:43;;;;;;;10.27;4.00;;;17.60;99.90;;;;;;5030372;28;20506;-42
2021/08/14 01:16:10;;;;;;;9.35;4.13;;;17.70;99.90;;;;;;5030846;28;20136;-40
2021/08/14 01:18:43;;;;;;;12.07;4.43;;;17.60;99.90;;;;;;5031215;28;20060;-39
2021/08/14 01:21:10;;;;;;;7.95;4.03;;;17.60;99.90;;;;;;5029968;28;20018;-40
2021/08/14 01:23:36;;;;;;;8.85;3.88;;;17.60;99.90;;;;;;5031193;28;20041;-41
2021/08/14 01:26:08;;;;;;;11.32;4.63;;;17.50;99.90;;;;;;5030498;28;20032;-41
2021/08/14 01:28:35;;;;;;;12.23;4.55;;;17.50;99.90;;;;;;5030089;28;20477;-39
2021/08/14 01:31:03;;;;;;;7.75;4.00;;;17.40;99.90;;;;;;5030234;28;20095;-38
2021/08/14 01:33:38;;;;;;;12.80;4.32;;;17.40;99.90;;;;;;5031089;28;20594;-40
2021/08/14 01:36:06;;;;;;;12.02;5.15;;;17.40;99.90;;;;;;5028745;28;20076;-40
2021/08/14 01:38:32;;;;;;;9.90;4.28;;;17.40;99.90;;;;;;5030414;28;20041;-43
2021/08/14 01:41:05;;;;;;;10.95;4.25;;;17.30;99.90;;;;;;5030142;28;20552;-40
2021/08/14 01:43:31;;;;;;;11.88;4.60;;;17.30;99.90;;;;;;5027126;28;20548;-37
2021/08/14 01:45:56;;;;;;;10.70;4.25;;;17.30;99.90;;;;;;5030082;28;20113;-39
2021/08/14 01:48:22;;;;;;;10.30;4.38;;;17.30;99.90;;;;;;5030301;28;20076;-41
2021/08/14 01:50:47;;;;;;;13.23;4.85;;;17.30;99.90;;;;;;5029329;28;20488;-41
2021/08/14 01:53:13;;;;;;;11.32;4.60;;;17.30;99.90;;;;;;5030171;28;20033;-40
2021/08/14 01:55:39;;;;;;;15.60;5.18;;;17.30;99.90;;;;;;5029840;28;20057;-40
2021/08/14 01:58:06;;;;;;;14.88;4.90;;;17.30;99.90;;;;;;5029763;28;20740;-40
2021/08/14 02:00:32;;;;;;;12.98;4.30;;;17.30;99.90;;;;;;5030090;28;20021;-39
2021/08/14 02:02:58;;;;;;;8.00;4.03;;;17.30;99.90;;;;;;5028922;28;20429;-41
2021/08/14 02:05:26;;;;;;;10.50;4.50;;;17.30;99.90;;;;;;5030084;28;20025;-39
2021/08/14 02:07:52;;;;;;;12.63;4.90;;;17.40;99.90;;;;;;5029376;28;20033;-40
2021/08/14 02:10:18;;;;;;;8.75;4.30;;;17.40;99.90;;;;;;5030208;28;20033;-41
2021/08/14 02:12:43;;;;;;;11.02;4.93;;;17.40;99.90;;;;;;5029366;28;20041;-40
2021/08/14 02:15:09;;;;;;;12.10;4.75;;;17.30;99.90;;;;;;5029710;28;20025;-40
2021/08/14 02:17:35;;;;;;;10.52;4.53;;;17.30;99.90;;;;;;5029894;28;20627;-37
2021/08/14 02:20:00;;;;;;;10.05;4.43;;;17.30;99.90;;;;;;5029426;28;20014;-40
2021/08/14 02:22:26;;;;;;;12.00;4.78;;;17.20;99.90;;;;;;5029847;28;20018;-40
2021/08/14 02:24:51;;;;;;;9.93;5.10;;;17.10;99.90;;;;;;5029271;28;20010;-41
2021/08/14 02:27:17;;;;;;;11.15;4.82;;;17.10;99.90;;;;;;5029805;28;20579;-37
2021/08/14 02:29:42;;;;;;;13.90;4.85;;;17.00;99.90;;;;;;5029704;28;20029;-37
2021/08/14 02:32:08;;;;;;;11.55;4.70;;;17.00;99.90;;;;;;5029869;28;20595;-40
2021/08/14 02:34:34;;;;;;;11.23;5.15;;;16.90;99.90;;;;;;5029648;28;20026;-39
2021/08/14 02:36:59;;;;;;;11.30;5.05;;;16.90;99.90;;;;;;5029217;28;20104;-39
2021/08/14 02:39:25;;;;;;;9.23;4.75;;;16.90;99.90;;;;;;5029069;28;20036;-35
2021/08/14 02:41:51;;;;;;;8.13;4.80;;;16.90;99.90;;;;;;5029531;28;20048;-40
2021/08/14 02:44:16;;;;;;;8.45;4.57;;;16.90;99.90;;;;;;5029089;28;20033;-36
2021/08/14 02:46:42;;;;;;;12.25;4.90;;;16.90;99.90;;;;;;5028871;28;20028;-40
2021/08/14 02:49:07;;;;;;;12.48;4.97;;;16.80;99.90;;;;;;5028854;28;20068;-38
2021/08/14 02:51:33;;;;;;;10.35;4.78;;;16.80;99.90;;;;;;5029205;28;20040;-39
2021/08/14 02:53:58;;;;;;;7.18;4.07;;;16.80;99.90;;;;;;5028786;28;20116;-38
2021/08/14 02:56:24;;;;;;;8.05;4.18;;;16.70;99.90;;;;;;5029989;28;20025;-41
2021/08/14 02:58:50;;;;;;;9.88;4.63;;;16.70;99.90;;;;;;5029360;28;20090;-38
2021/08/14 03:01:15;;;;;;;12.60;5.80;;;16.70;99.90;;;;;;5028654;28;20487;-40
2021/08/14 03:03:41;;;;;;;10.13;4.95;;;16.60;99.90;;;;;;5028654;28;20030;-39
2021/08/14 03:06:26;;;;;;;11.18;5.20;;;16.60;99.90;;;;;;5028658;28;20020;-38
2021/08/14 03:08:52;;;;;;;11.55;5.13;;;16.60;99.90;;;;;;5028610;28;20040;-41
2021/08/14 03:11:18;;;;;;;9.10;4.63;;;16.60;99.90;;;;;;5028484;28;20025;-37
2021/08/14 03:13:44;;;;;;;12.65;5.25;;;16.60;99.90;;;;;;5029234;28;20717;-36
2021/08/14 03:16:09;;;;;;;12.98;5.15;;;16.50;99.90;;;;;;5028088;28;20076;-41
2021/08/14 03:18:37;;;;;;;11.02;4.85;;;16.50;99.90;;;;;;5028799;28;20068;-37
2021/08/14 03:21:03;;;;;;;9.65;5.05;;;16.50;99.90;;;;;;5028342;28;20022;-38
2021/08/14 03:23:29;;;;;;;11.65;5.20;;;16.50;99.90;;;;;;5028597;28;20030;-38
2021/08/14 03:25:54;;;;;;;10.48;5.00;;;16.50;99.90;;;;;;5028554;28;20022;-39
2021/08/14 03:28:20;;;;;;;8.98;4.90;;;16.40;99.90;;;;;;5028136;28;20072;-39
2021/08/14 03:30:45;;;;;;;13.68;5.90;;;16.50;99.90;;;;;;5028210;28;20112;-37
2021/08/14 03:33:11;;;;;;;10.85;5.40;;;16.40;99.90;;;;;;5028940;28;20026;-39
2021/08/14 03:35:36;;;;;;;8.95;4.50;;;16.40;99.90;;;;;;5028095;28;20474;-37
2021/08/14 03:38:02;;;;;;;10.20;4.93;;;16.40;99.90;;;;;;5027929;28;20029;-36
2021/08/14 03:40:28;;;;;;;7.70;4.55;;;16.40;99.90;;;;;;5028806;28;20469;-36
2021/08/14 03:42:53;;;;;;;13.48;5.00;;;16.40;99.90;;;;;;5027907;28;20027;-39
2021/08/14 03:45:19;;;;;;;10.23;5.57;;;16.40;99.90;;;;;;5029351;28;20018;-37
2021/08/14 03:47:45;;;;;;;10.93;5.07;;;16.40;99.90;;;;;;5028504;28;20037;-39
2021/08/14 03:50:11;;;;;;;10.27;4.90;;;16.40;99.90;;;;;;5028157;28;20025;-40
2021/08/14 03:52:37;;;;;;;12.95;5.70;;;16.40;99.90;;;;;;5027811;28;20455;-38
2021/08/14 03:55:04;;;;;;;11.27;5.65;;;16.40;99.90;;;;;;5028523;28;20067;-38
2021/08/14 03:57:30;;;;;;;10.30;5.35;;;16.30;99.90;;;;;;5027957;28;20048;-40
2021/08/14 03:59:55;;;;;;;10.27;5.18;;;16.30;99.90;;;;;;5031522;28;20024;-41
2021/08/14 04:02:21;;;;;;;9.57;5.63;;;16.30;99.90;;;;;;5032221;28;20018;-36
2021/08/14 04:04:47;;;;;;;10.95;4.88;;;16.30;99.90;;;;;;5031311;28;20022;-36
2021/08/14 04:07:12;;;;;;;13.20;5.45;;;16.30;99.90;;;;;;5032761;28;20120;-40
2021/08/14 04:09:38;;;;;;;10.57;5.13;;;16.30;99.90;;;;;;5031691;28;20029;-42
2021/08/14 04:12:05;;;;;;;12.48;5.70;;;16.20;99.90;;;;;;5031663;28;20402;-41
2021/08/14 04:14:31;;;;;;;11.30;5.07;;;16.20;99.90;;;;;;5032400;28;20033;-41
2021/08/14 04:16:56;;;;;;;14.18;5.80;;;16.20;99.90;;;;;;5031207;28;20021;-40
2021/08/14 04:19:22;;;;;;;12.20;5.70;;;16.20;99.90;;;;;;5032519;28;20026;-41
2021/08/14 04:21:47;;;;;;;11.40;5.57;;;16.10;99.90;;;;;;5031702;28;20087;-39
2021/08/14 04:24:13;;;;;;;8.45;5.15;;;16.10;99.90;;;;;;5020632;28;20428;-35
2021/08/14 04:26:39;;;;;;;13.10;5.68;;;16.10;99.90;;;;;;5031639;28;20047;-36
2021/08/14 04:29:04;;;;;;;12.38;5.93;;;16.10;99.90;;;;;;5031861;28;20441;-36
2021/08/14 04:31:30;;;;;;;10.52;5.43;;;16.10;99.90;;;;;;5031990;28;20029;-41
2021/08/14 04:33:55;;;;;;;9.88;6.13;;;16.10;99.90;;;;;;5031637;28;20100;-38
2021/08/14 04:36:21;;;;;;;15.00;6.13;;;16.20;99.90;;;;;;5032378;28;20507;-40
2021/08/14 04:38:48;;;;;;;15.82;5.78;;;16.20;99.90;;;;;;5030536;28;20083;-41
2021/08/14 04:41:14;;;;;;;9.40;5.68;;;16.30;99.90;;;;;;5031752;28;20029;-40
2021/08/14 04:43:39;;;;;;;10.95;5.10;;;16.30;99.90;;;;;;5031243;28;20033;-39
2021/08/14 04:46:05;;;;;;;10.93;5.60;;;16.30;99.90;;;;;;5031079;28;20059;-39
2021/08/14 04:48:30;;;;;;;12.40;5.90;;;16.30;99.90;;;;;;5031973;28;20480;-38
2021/08/14 04:50:56;;;;;;;10.50;5.53;;;16.20;99.90;;;;;;5030869;28;20057;-38
2021/08/14 04:53:21;;;;;;;10.95;5.75;;;16.30;99.90;;;;;;5030640;28;20496;-37
2021/08/14 04:55:47;;;;;;;11.93;5.68;;;16.20;99.90;;;;;;5030810;28;20034;-40
2021/08/14 04:58:13;;;;;;;10.70;6.20;;;16.30;99.90;;;;;;5031381;28;20109;-39
2021/08/14 05:00:39;;;;;;;11.13;6.45;;;16.30;99.90;;;;;;5030690;28;20067;-41
2021/08/14 05:03:04;;;;;;;12.10;5.78;;;16.30;99.90;;;;;;5031193;28;20036;-42
2021/08/14 05:05:30;;;;;;;12.02;6.05;;;16.30;99.90;;;;;;5030748;28;20026;-40
2021/08/14 05:07:55;;;;;;;12.32;6.07;;;16.30;99.90;;;;;;5030518;28;20171;-39
2021/08/14 05:10:21;;;;;;;11.93;5.97;;;16.30;99.90;;;;;;5031036;28;20025;-40
2021/08/14 05:12:46;;;;;;;16.20;6.70;;;16.30;99.90;;;;;;5030144;28;20045;-40
2021/08/14 05:15:12;;;;;;;14.23;5.97;;;16.30;99.90;;;;;;5031126;28;20026;-38
2021/08/14 05:17:38;;;;;;;11.05;5.93;;;16.20;99.90;;;;;;5031459;28;20148;-37
2021/08/14 05:20:05;;;;;;;12.40;6.30;;;16.20;99.90;;;;;;5030321;28;20377;-37
2021/08/14 05:22:31;;;;;;;12.82;6.03;;;16.20;99.90;;;;;;5030821;28;20485;-40
2021/08/14 05:24:56;;;;;;;11.00;5.97;;;16.30;99.90;;;;;;5030253;28;20054;-39
2021/08/14 05:27:22;;;;;;;13.73;5.75;;;16.30;99.90;;;;;;5030463;28;20027;-41
2021/08/14 05:29:48;;;;;;;12.85;6.10;;;16.30;99.90;;;;;;5029888;28;20021;-36
2021/08/14 05:32:13;;;;;;;12.30;6.53;;;16.30;99.90;;;;;;5031198;28;20022;-39
2021/08/14 05:34:39;;;;;;;11.07;5.95;;;16.30;99.90;;;;;;5030147;28;20373;-41
2021/08/14 05:37:05;;;;;;;12.98;6.07;;;16.40;99.90;;;;;;5030614;28;20375;-42
2021/08/14 05:39:32;;;;;;;11.02;5.88;;;16.30;99.90;;;;;;5030245;28;20428;-38
2021/08/14 05:41:58;;;;;;;11.85;6.22;;;16.40;99.90;;;;;;5029600;28;20072;-40
2021/08/14 05:44:23;;;;;;;10.43;5.32;;;16.40;99.90;;;;;;5030165;28;20025;-38
2021/08/14 05:46:49;;;;;;;12.05;6.10;;;16.40;99.90;;;;;;5030051;28;20033;-39
2021/08/14 05:49:15;;;;;;;10.32;5.97;;;16.40;99.90;;;;;;5029896;28;20036;-41
2021/08/14 05:51:41;;;;;;;12.73;5.70;;;16.40;99.90;;;;;;5030508;28;20036;-41
2021/08/14 05:54:07;;;;;;;14.98;6.20;;;16.40;99.90;;;;;;5030677;28;20527;-36
2021/08/14 05:56:33;;;;;;;11.45;5.80;;;16.40;99.90;;;;;;5029868;28;20123;-40
2021/08/14 05:58:59;;;;;;;13.48;6.03;;;16.40;99.90;;;;;;5029917;28;20125;-42
2021/08/14 06:01:24;;;;;;;11.70;6.13;;;16.50;99.90;;;;;;5030309;28;20433;-38
2021/08/14 06:03:50;;;;;;;9.75;5.93;;;16.50;99.90;;;;;;5029284;28;20013;-38
2021/08/14 06:06:16;;;;;;;13.20;6.38;;;16.50;99.90;;;;;;5029689;28;20033;-42
2021/08/14 06:08:41;;;;;;;12.77;6.30;;;16.50;99.90;;;;;;5029786;28;20489;-35
2021/08/14 06:11:07;;;;;;;10.60;5.32;;;16.50;99.90;;;;;;5029152;28;20060;-40
2021/08/14 06:13:32;;;;;;;12.80;6.97;;;16.50;99.90;;;;;;5030113;28;20041;-40
2021/08/14 06:15:58;;;;;;;14.23;6.55;;;16.60;99.90;;;;;;5028899;28;20105;-38
2021/08/14 06:18:24;;;;;;;10.43;6.40;;;16.60;99.90;;;;;;5029880;28;20155;-40
2021/08/14 06:20:49;;;;;;;11.70;6.05;;;16.60;99.90;;;;;;5028290;28;20032;-39
2021/08/14 06:23:15;;;;;;;20.65;9.27;;;16.60;99.90;;;;;;5029160;28;20025;-35
2021/08/14 06:25:40;;;;;;;13.90;7.10;;;16.60;99.90;;;;;;5029919;28;20032;-41
2021/08/14 06:28:06;;;;;;;12.18;6.45;;;16.70;99.90;;;;;;5029425;28;20048;-40
2021/08/14 06:30:32;;;;;;;13.82;6.63;;;16.60;99.90;;;;;;5029444;28;20018;-40
2021/08/14 06:32:58;;;;;;;14.13;6.60;;;16.70;99.90;;;;;;5029026;28;20024;-42
2021/08/14 06:35:24;;;;;;;10.80;6.45;;;16.70;99.90;;;;;;5029728;28;20151;-38
2021/08/14 06:37:49;;;;;;;10.55;6.10;;;16.70;99.90;;;;;;5028628;28;20408;-41
2021/08/14 06:40:15;;;;;;;12.45;6.05;;;16.80;99.90;;;;;;5029331;28;20018;-41
2021/08/14 06:42:41;;;;;;;10.50;5.82;;;16.90;99.90;;;;;;5028800;28;20021;-39
2021/08/14 06:45:07;;;;;;;12.65;6.20;;;16.90;99.90;;;;;;5028721;28;20025;-39
2021/08/14 06:47:33;;;;;;;15.50;6.80;;;17.00;99.90;;;;;;5029405;28;20038;-39
2021/08/14 06:49:58;;;;;;;16.02;6.63;;;17.00;99.90;;;;;;5029006;28;20062;-42
2021/08/14 06:52:28;;;;;;;15.30;7.18;;;17.00;99.90;;;;;;5028402;28;20034;-41
2021/08/14 06:54:53;;;;;;;15.30;7.22;;;17.10;99.90;;;;;;5028603;28;20076;-39
2021/08/14 06:57:19;;;;;;;17.02;8.15;;;17.10;99.90;;;;;;5028752;28;20053;-39
2021/08/14 06:59:44;;;;;;;14.30;8.00;;;17.10;99.90;;;;;;5028496;28;20061;-42
2021/08/14 07:02:10;;;;;;;19.85;9.15;;;17.20;99.90;;;;;;5029491;28;20036;-40
2021/08/14 07:04:38;;;;;;;14.32;7.82;;;17.20;99.90;;;;;;5028633;28;20555;-36
2021/08/14 07:07:04;;;;;;;13.18;6.45;;;17.20;99.90;;;;;;5027988;28;20029;-39
2021/08/14 07:09:29;;;;;;;12.35;6.70;;;17.30;99.90;;;;;;5028863;28;20543;-39
2021/08/14 07:11:55;;;;;;;17.45;8.60;;;17.30;99.90;;;;;;5028622;28;20563;-38
2021/08/14 07:14:20;;;;;;;18.13;8.80;;;17.40;99.90;;;;;;5028100;28;20132;-41
2021/08/14 07:16:46;;;;;;;18.38;7.57;;;17.40;99.90;;;;;;5047291;28;20411;-36
2021/08/14 07:19:18;;;;;;;12.57;7.05;;;17.50;99.90;;;;;;5029824;28;20408;-42
2021/08/14 07:21:43;;;;;;;14.80;7.05;;;17.50;99.90;;;;;;5028821;28;20033;-40
2021/08/14 07:24:09;;;;;;;12.27;7.13;;;17.50;99.90;;;;;;5025505;28;20087;-41
2021/08/14 07:26:34;;;;;;;16.75;7.85;;;17.60;99.90;;;;;;5027361;28;20060;-40
2021/08/14 07:29:00;;;;;;;14.88;7.75;;;17.70;99.90;;;;;;5026843;28;20436;-38
2021/08/14 07:31:26;;;;;;;12.60;7.13;;;17.70;99.90;;;;;;5027740;28;20461;-41
2021/08/14 07:33:51;;;;;;;16.30;7.72;;;17.80;99.90;;;;;;5026255;28;20053;-42
2021/08/14 07:36:17;;;;;;;19.48;9.52;;;17.80;99.90;;;;;;5028245;28;20026;-40
2021/08/14 07:38:42;;;;;;;18.45;8.93;;;17.90;99.90;;;;;;5027873;28;20021;-39
2021/08/14 07:41:08;;;;;;;20.50;9.27;;;18.00;99.90;;;;;;5027712;28;20026;-40
2021/08/14 07:43:33;;;;;;;15.32;7.30;;;18.00;99.90;;;;;;5027260;28;20311;-36
2021/08/14 07:45:59;;;;;;;14.60;7.15;;;18.10;99.90;;;;;;5027800;28;20112;-38
2021/08/14 07:48:24;;;;;;;17.23;8.20;;;18.10;99.90;;;;;;5026603;28;20076;-40
2021/08/14 07:50:50;;;;;;;16.95;7.72;;;18.20;99.90;;;;;;5027383;28;20044;-38
2021/08/14 07:53:16;;;;;;;21.45;8.55;;;18.20;99.90;;;;;;5026899;28;20025;-41
2021/08/14 07:55:41;;;;;;;17.40;8.25;;;18.30;99.90;;;;;;5027020;28;20079;-39
2021/08/14 07:58:13;;;;;;;13.63;6.35;;;18.20;99.90;;;;;;5028331;28;20043;-44
2021/08/14 08:00:39;;;;;;;17.15;7.63;;;18.30;99.90;;;;;;5027508;28;20029;-39
2021/08/14 08:03:09;;;;;;;15.18;7.15;;;18.30;99.90;;;;;;5027501;28;20358;-38
2021/08/14 08:05:35;;;;;;;14.70;7.35;;;18.40;99.90;;;;;;5028134;28;20477;-36
2021/08/14 08:08:05;;;;;;;17.10;8.05;;;18.40;99.90;;;;;;5028352;28;20033;-41
2021/08/14 08:10:31;;;;;;;15.60;6.45;;;18.50;99.90;;;;;;5028037;28;20211;-39
2021/08/14 08:12:57;;;;;;;14.63;6.95;;;18.50;99.90;;;;;;5027151;28;20073;-42
2021/08/14 08:15:24;;;;;;;16.60;8.02;;;18.60;99.90;;;;;;5027592;28;20147;-43
2021/08/14 08:17:49;;;;;;;14.40;7.45;;;18.60;99.90;;;;;;5027737;28;20034;-42
2021/08/14 08:20:16;;;;;;;16.48;8.10;;;18.60;99.90;;;;;;5028609;28;20021;-41
2021/08/14 08:22:43;;;;;;;19.08;8.73;;;18.70;99.90;;;;;;5027938;28;20056;-43
2021/08/14 08:25:16;;;;;;;17.50;8.23;;;18.70;99.90;;;;;;5028215;28;20407;-41
2021/08/14 08:27:49;;;;;;;11.93;7.38;;;18.70;99.90;;;;;;5028852;28;20477;-39
2021/08/14 08:30:18;;;;;;;15.23;7.43;;;18.80;99.90;;;;;;5027996;28;20180;-38
2021/08/14 08:32:44;;;;;;;17.58;8.13;;;18.90;99.90;;;;;;5027875;28;20079;-42
2021/08/14 08:35:11;;;;;;;17.58;7.93;;;18.90;99.90;;;;;;5028904;28;20030;-42
2021/08/14 08:37:37;;;;;;;15.82;8.27;;;19.00;99.90;;;;;;5027743;28;20036;-42
2021/08/14 08:40:04;;;;;;;12.40;7.03;;;18.90;99.90;;;;;;5028081;28;20262;-37
2021/08/14 08:42:29;;;;;;;15.02;8.75;;;19.00;99.90;;;;;;5028226;28;20064;-41
2021/08/14 08:44:55;;;;;;;21.42;9.13;;;19.00;99.90;;;;;;5029195;28;20521;-35
2021/08/14 08:47:21;;;;;;;17.55;9.35;;;19.10;99.90;;;;;;5030463;28;20026;-41
2021/08/14 08:49:53;;;;;;;13.68;7.75;;;19.20;99.90;;;;;;5030450;28;20017;-42
2021/08/14 08:52:22;;;;;;;16.83;8.45;;;19.30;99.90;;;;;;5031754;28;20028;-42
2021/08/14 08:54:49;;;;;;;10.82;6.20;;;19.40;99.90;;;;;;5031412;28;20029;-37
2021/08/14 08:57:15;;;;;;;20.77;8.68;;;19.50;99.90;;;;;;5031330;28;20030;-40
2021/08/14 08:59:41;;;;;;;24.92;11.90;;;19.50;99.90;;;;;;5031431;28;20048;-41
2021/08/14 09:02:33;;;;;;;19.33;9.95;;;19.50;99.90;;;;;;5030942;28;20031;-39
2021/08/14 09:05:09;;;;;;;18.67;10.10;;;19.60;99.90;;;;;;5011381;28;20026;-38
2021/08/14 09:07:36;;;;;;;22.60;11.85;;;19.60;99.90;;;;;;5028569;28;20068;-41
2021/08/14 09:10:03;;;;;;;21.20;12.40;;;19.70;99.90;;;;;;5031235;28;20029;-38
2021/08/14 09:12:31;;;;;;;23.60;14.30;;;19.80;99.90;;;;;;5030189;28;20057;-39
2021/08/14 09:14:56;;;;;;;26.15;13.20;;;19.80;99.90;;;;;;5030679;28;20465;-43
2021/08/14 09:17:28;;;;;;;20.63;13.50;;;19.80;99.90;;;;;;5031650;28;20029;-37
2021/08/14 09:20:17;;;;;;;25.50;14.13;;;19.80;99.90;;;;;;5029327;28;20107;-38
2021/08/14 09:22:57;;;;;;;30.25;16.42;;;19.80;99.90;;;;;;5028724;28;20042;-40
2021/08/14 09:25:23;;;;;;;22.55;12.07;;;19.80;99.90;;;;;;5029842;28;20473;-39
2021/08/14 09:28:00;;;;;;;23.88;13.70;;;19.70;99.90;;;;;;5028711;28;20026;-36
2021/08/14 09:30:44;;;;;;;26.05;13.90;;;19.60;99.90;;;;;;5029589;28;20030;-37
2021/08/14 09:33:11;;;;;;;23.13;12.43;;;19.60;99.90;;;;;;5031203;28;20056;-37
2021/08/14 09:35:37;;;;;;;23.35;13.02;;;19.60;99.90;;;;;;5030377;28;20041;-39
2021/08/14 09:38:05;;;;;;;23.00;11.63;;;19.60;99.90;;;;;;5028920;28;20140;-39
2021/08/14 09:40:35;;;;;;;22.90;12.00;;;19.50;99.90;;;;;;5026740;28;20013;-39
2021/08/14 09:43:01;;;;;;;21.75;12.32;;;19.50;99.90;;;;;;5025844;28;20569;-44
2021/08/14 09:45:27;;;;;;;20.30;11.38;;;19.40;99.90;;;;;;5027223;28;20104;-42
2021/08/14 09:47:53;;;;;;;18.08;10.30;;;19.40;99.90;;;;;;5025623;28;20533;-42
2021/08/14 09:50:19;;;;;;;20.75;11.73;;;19.40;99.90;;;;;;5027622;28;20013;-41
2021/08/14 09:52:51;;;;;;;25.70;12.70;;;19.50;99.90;;;;;;5027596;28;20156;-40
2021/08/14 09:55:23;;;;;;;24.02;12.30;;;19.50;99.90;;;;;;5018374;28;20029;-42
2021/08/14 09:57:59;;;;;;;22.20;12.55;;;19.60;99.90;;;;;;5029370;28;20026;-38
2021/08/14 10:00:28;;;;;;;19.67;11.32;;;19.60;99.90;;;;;;5028577;28;20021;-38
2021/08/14 10:02:56;;;;;;;21.95;11.27;;;19.60;99.90;;;;;;5029630;28;20036;-42
2021/08/14 10:05:21;;;;;;;22.20;11.77;;;19.60;99.90;;;;;;5030863;28;20083;-43
2021/08/14 10:07:47;;;;;;;27.15;14.77;;;19.70;99.90;;;;;;5030326;28;20029;-40
2021/08/14 10:10:12;;;;;;;22.98;13.40;;;19.70;99.90;;;;;;5029491;28;20017;-40
2021/08/14 10:12:38;;;;;;;22.73;12.02;;;19.60;99.90;;;;;;5029761;28;20136;-42
2021/08/14 10:15:04;;;;;;;23.38;12.43;;;19.70;99.90;;;;;;5029475;28;20419;-41
2021/08/14 10:17:30;;;;;;;26.02;13.65;;;19.90;99.90;;;;;;5030607;28;20163;-42
2021/08/14 10:19:58;;;;;;;33.30;16.33;;;20.00;99.90;;;;;;5029848;28;20051;-40
2021/08/14 10:22:25;;;;;;;25.17;12.98;;;20.00;99.90;;;;;;5029881;28;20227;-42
2021/08/14 10:24:51;;;;;;;24.25;12.35;;;20.10;99.90;;;;;;5029560;28;20392;-41
2021/08/14 10:27:18;;;;;;;23.88;12.98;;;20.30;99.90;;;;;;5029875;28;20058;-40
2021/08/14 10:29:54;;;;;;;22.52;11.75;;;20.50;99.90;;;;;;5028865;28;20017;-39
2021/08/14 10:32:35;;;;;;;26.75;13.98;;;20.70;99.90;;;;;;5030639;28;20017;-41
2021/08/14 10:35:12;;;;;;;28.67;14.63;;;20.90;99.90;;;;;;5029072;28;20061;-43
2021/08/14 10:37:39;;;;;;;27.80;14.73;;;20.90;99.90;;;;;;5028806;28;20079;-39
2021/08/14 10:40:06;;;;;;;20.48;11.40;;;20.90;99.90;;;;;;5029809;28;20018;-37
2021/08/14 10:42:48;;;;;;;23.70;12.25;;;21.00;99.90;;;;;;5030047;28;20063;-41
2021/08/14 10:45:15;;;;;;;23.00;12.60;;;21.10;99.90;;;;;;5029365;28;20112;-41
2021/08/14 10:47:44;;;;;;;18.83;10.70;;;21.20;99.90;;;;;;5029573;28;20460;-37
2021/08/14 10:50:36;;;;;;;22.65;12.65;;;21.30;99.90;;;;;;5028509;28;20374;-38
2021/08/14 10:53:11;;;;;;;21.55;11.10;;;21.40;99.90;;;;;;5028097;28;20064;-39
2021/08/14 10:55:40;;;;;;;22.23;11.95;;;21.50;99.90;;;;;;5029014;28;20029;-40
2021/08/14 10:58:37;;;;;;;18.25;10.70;;;21.60;99.90;;;;;;5029068;28;20176;-41
2021/08/14 11:01:03;;;;;;;16.98;10.65;;;21.70;99.90;;;;;;5037401;28;20029;-44
2021/08/14 11:03:36;;;;;;;15.82;10.18;;;21.70;99.90;;;;;;5030266;28;20034;-40
2021/08/14 11:06:28;;;;;;;20.10;10.63;;;21.80;99.90;;;;;;5026862;28;20118;-45
2021/08/14 11:09:18;;;;;;;20.25;11.38;;;21.80;99.90;;;;;;5030355;28;20037;-38
2021/08/14 11:11:59;;;;;;;19.10;11.15;;;21.80;99.80;;;;;;5029566;28;20065;-43
2021/08/14 11:15:12;;;;;;;21.30;12.13;;;21.90;99.80;;;;;;5007817;28;20039;-43
2021/08/14 11:17:37;;;;;;;21.95;11.05;;;21.90;99.60;;;;;;5026162;28;20029;-40
2021/08/14 11:20:04;;;;;;;15.82;9.98;;;22.00;99.60;;;;;;5036200;28;20020;-41
2021/08/14 11:22:41;;;;;;;19.17;12.05;;;22.00;99.60;;;;;;5028336;28;20021;-37
2021/08/14 11:25:22;;;;;;;16.90;10.20;;;22.00;99.60;;;;;;5040076;28;20035;-40
2021/08/14 11:27:59;;;;;;;20.75;11.07;;;22.00;99.80;;;;;;5033351;28;20923;-41
2021/08/14 11:30:27;;;;;;;20.20;11.32;;;22.20;99.80;;;;;;5031000;28;20580;-40
2021/08/14 11:32:54;;;;;;;17.52;10.90;;;22.30;99.20;;;;;;5029005;28;20032;-39
2021/08/14 11:35:22;;;;;;;18.33;11.77;;;22.40;99.00;;;;;;5036699;28;20017;-40
2021/08/14 11:38:02;;;;;;;19.38;11.18;;;22.50;99.00;;;;;;5035913;28;20772;-41
2021/08/14 11:40:29;;;;;;;21.02;11.20;;;22.50;98.80;;;;;;5027876;28;20041;-39
2021/08/14 11:43:00;;;;;;;14.85;9.15;;;22.40;98.80;;;;;;5033955;28;20013;-42
2021/08/14 11:45:27;;;;;;;14.25;8.73;;;22.30;99.00;;;;;;5038487;28;20072;-40
2021/08/14 11:47:58;;;;;;;15.52;9.50;;;22.20;99.10;;;;;;5033278;28;20037;-42
2021/08/14 11:50:31;;;;;;;16.10;10.05;;;22.20;99.20;;;;;;5046848;28;20032;-39
2021/08/14 11:52:56;;;;;;;14.27;8.50;;;22.20;99.20;;;;;;5021549;28;20127;-43
2021/08/14 11:55:22;;;;;;;13.25;8.30;;;22.30;99.10;;;;;;5028261;28;20638;-42
2021/08/14 11:57:51;;;;;;;19.20;10.85;;;22.30;99.00;;;;;;5027838;28;20014;-39
2021/08/14 12:00:17;;;;;;;15.00;8.85;;;22.30;98.60;;;;;;5028931;28;20025;-44
2021/08/14 12:02:47;;;;;;;17.90;8.60;;;22.20;98.90;;;;;;5039522;28;20465;-41
2021/08/14 12:05:21;;;;;;;13.82;9.27;;;22.10;99.10;;;;;;5040346;28;20501;-38
2021/08/14 12:07:47;;;;;;;16.45;10.32;;;22.10;99.10;;;;;;5038056;28;20037;-40
2021/08/14 12:10:12;;;;;;;14.32;8.18;;;22.20;99.10;;;;;;5028492;28;20033;-41
2021/08/14 12:12:38;;;;;;;10.85;8.07;;;22.10;99.10;;;;;;5027703;28;20049;-41
2021/08/14 12:15:11;;;;;;;16.98;10.10;;;22.20;99.20;;;;;;5033905;28;20036;-39
2021/08/14 12:17:46;;;;;;;14.88;9.10;;;22.20;99.10;;;;;;5012507;28;20132;-40
2021/08/14 12:20:12;;;;;;;12.50;9.07;;;22.30;99.20;;;;;;5020174;28;20024;-38
2021/08/14 12:22:37;;;;;;;13.98;9.05;;;22.50;98.90;;;;;;5039183;28;20021;-40
2021/08/14 12:25:23;;;;;;;15.02;8.35;;;22.50;98.80;;;;;;5039433;28;20377;-42
2021/08/14 12:27:49;;;;;;;11.82;8.25;;;22.70;98.70;;;;;;5037020;28;20068;-40
2021/08/14 12:30:16;;;;;;;16.25;9.63;;;22.80;98.50;;;;;;5041158;28;20053;-41
2021/08/14 12:32:42;;;;;;;12.00;8.07;;;23.00;98.10;;;;;;5030431;28;20044;-39
2021/08/14 12:35:16;;;;;;;18.50;10.52;;;23.10;98.00;;;;;;5030521;28;20109;-39
2021/08/14 12:37:42;;;;;;;15.10;8.70;;;23.10;97.70;;;;;;5029824;28;20029;-37